RJOF(METAR)
05/22 00:00
METAR RJOF 211500Z 01005KT 9999 FEW030 15/12 Q1008 RMK 1CU030 A2977=
戻る
トップページへ戻る
IMOC Co,.Ltd.